Lawn Ridge, Illinois
Current Conditions -  °F | °C
As of 6:15 AM on Tuesday 27 Jan 2015 (Local Time) from KC75 Reporting Station
Haze Haze  
Wind Chill: 29°   Ceiling: 900
Heat Index: 29°   Visibility: 4mi
Dew Point: 27°   Wind: 3mph
Humidity: 90%   Direction: 20°NNE
Pressure: 30.04"   Gusts: NA
Location:  40.9686°N, 89.597°W
Report Text: KC75 271215Z AUTO 02003KT 4SM BR OVC009 M02/M03 A3004 RMK AO2 T10161030
Loading
Personal Weather Stations






























Interactive Weather Map New forecast layout! Learn more

10-Day Weather Forecast

Advertisements
Track Severe Weather on mobile